sensor_id;sensor_type;location;lat;lon;timestamp;temperature;humidity
18932;DHT22;9598;50.954;3.112;2022-11-25T00:01:54;10.90;99.90
18932;DHT22;9598;50.954;3.112;2022-11-25T00:06:56;10.90;99.90
18932;DHT22;9598;50.954;3.112;2022-11-25T00:12:00;10.80;99.90
18932;DHT22;9598;50.954;3.112;2022-11-25T00:17:02;10.80;99.90
18932;DHT22;9598;50.954;3.112;2022-11-25T00:22:06;10.80;99.90
18932;DHT22;9598;50.954;3.112;2022-11-25T00:27:10;10.70;99.90
18932;DHT22;9598;50.954;3.112;2022-11-25T00:32:12;10.70;99.90
18932;DHT22;9598;50.954;3.112;2022-11-25T00:37:14;10.60;99.90
18932;DHT22;9598;50.954;3.112;2022-11-25T00:42:17;10.60;99.90
18932;DHT22;9598;50.954;3.112;2022-11-25T00:47:37;10.60;99.90
18932;DHT22;9598;50.954;3.112;2022-11-25T00:52:39;10.60;99.90
18932;DHT22;9598;50.954;3.112;2022-11-25T00:57:42;10.60;99.90
18932;DHT22;9598;50.954;3.112;2022-11-25T01:02:47;10.60;99.90
18932;DHT22;9598;50.954;3.112;2022-11-25T01:07:49;10.60;99.90
18932;DHT22;9598;50.954;3.112;2022-11-25T01:12:52;10.60;99.90
18932;DHT22;9598;50.954;3.112;2022-11-25T01:17:54;10.50;99.90
18932;DHT22;9598;50.954;3.112;2022-11-25T01:22:58;10.60;99.90
18932;DHT22;9598;50.954;3.112;2022-11-25T01:28:04;10.60;99.90
18932;DHT22;9598;50.954;3.112;2022-11-25T01:33:06;10.50;99.90
18932;DHT22;9598;50.954;3.112;2022-11-25T01:38:08;10.50;99.90
18932;DHT22;9598;50.954;3.112;2022-11-25T01:43:12;10.50;99.90
18932;DHT22;9598;50.954;3.112;2022-11-25T01:48:19;10.40;99.90
18932;DHT22;9598;50.954;3.112;2022-11-25T01:53:22;10.40;99.90
18932;DHT22;9598;50.954;3.112;2022-11-25T01:58:29;10.40;99.90
18932;DHT22;9598;50.954;3.112;2022-11-25T02:03:36;10.30;99.90
18932;DHT22;9598;50.954;3.112;2022-11-25T02:08:40;10.30;99.90
18932;DHT22;9598;50.954;3.112;2022-11-25T02:13:45;10.40;99.90
18932;DHT22;9598;50.954;3.112;2022-11-25T02:18:48;10.40;99.90
18932;DHT22;9598;50.954;3.112;2022-11-25T02:23:54;10.30;99.90
18932;DHT22;9598;50.954;3.112;2022-11-25T02:28:59;10.30;99.90
18932;DHT22;9598;50.954;3.112;2022-11-25T02:34:01;10.30;99.90
18932;DHT22;9598;50.954;3.112;2022-11-25T02:39:04;10.20;99.90
18932;DHT22;9598;50.954;3.112;2022-11-25T02:44:09;10.20;99.90
18932;DHT22;9598;50.954;3.112;2022-11-25T02:49:13;10.20;99.90
18932;DHT22;9598;50.954;3.112;2022-11-25T02:54:16;10.20;99.90
18932;DHT22;9598;50.954;3.112;2022-11-25T02:59:19;10.20;99.90
18932;DHT22;9598;50.954;3.112;2022-11-25T03:04:22;10.30;99.90
18932;DHT22;9598;50.954;3.112;2022-11-25T03:09:24;10.30;99.90
18932;DHT22;9598;50.954;3.112;2022-11-25T03:14:29;10.30;99.90
18932;DHT22;9598;50.954;3.112;2022-11-25T03:19:31;10.30;99.90
18932;DHT22;9598;50.954;3.112;2022-11-25T03:24:33;10.30;99.90
18932;DHT22;9598;50.954;3.112;2022-11-25T03:29:37;10.30;99.90
18932;DHT22;9598;50.954;3.112;2022-11-25T03:34:39;10.30;99.90
18932;DHT22;9598;50.954;3.112;2022-11-25T03:39:41;10.30;99.90
18932;DHT22;9598;50.954;3.112;2022-11-25T03:44:46;10.40;99.90
18932;DHT22;9598;50.954;3.112;2022-11-25T03:49:48;10.40;99.90
18932;DHT22;9598;50.954;3.112;2022-11-25T03:54:50;10.40;99.90
18932;DHT22;9598;50.954;3.112;2022-11-25T03:59:56;10.20;99.90
18932;DHT22;9598;50.954;3.112;2022-11-25T04:04:58;10.20;99.90
18932;DHT22;9598;50.954;3.112;2022-11-25T04:10:01;10.20;99.90
18932;DHT22;9598;50.954;3.112;2022-11-25T04:15:08;10.20;99.90
18932;DHT22;9598;50.954;3.112;2022-11-25T04:20:13;10.20;99.90
18932;DHT22;9598;50.954;3.112;2022-11-25T04:25:19;10.20;99.90
18932;DHT22;9598;50.954;3.112;2022-11-25T04:30:23;10.20;99.90
18932;DHT22;9598;50.954;3.112;2022-11-25T04:35:26;10.10;99.90
18932;DHT22;9598;50.954;3.112;2022-11-25T04:40:29;10.10;99.90
18932;DHT22;9598;50.954;3.112;2022-11-25T04:45:47;10.10;99.90
18932;DHT22;9598;50.954;3.112;2022-11-25T04:50:49;10.10;99.90
18932;DHT22;9598;50.954;3.112;2022-11-25T04:55:51;10.10;99.90
18932;DHT22;9598;50.954;3.112;2022-11-25T05:00:55;10.10;99.90
18932;DHT22;9598;50.954;3.112;2022-11-25T05:05:57;10.10;99.90
18932;DHT22;9598;50.954;3.112;2022-11-25T05:10:59;10.10;99.90
18932;DHT22;9598;50.954;3.112;2022-11-25T05:16:04;10.00;99.90
18932;DHT22;9598;50.954;3.112;2022-11-25T05:21:06;9.90;99.90
18932;DHT22;9598;50.954;3.112;2022-11-25T05:26:12;9.80;99.90
18932;DHT22;9598;50.954;3.112;2022-11-25T05:31:19;9.80;99.90
18932;DHT22;9598;50.954;3.112;2022-11-25T05:36:22;9.80;99.90
18932;DHT22;9598;50.954;3.112;2022-11-25T05:41:25;9.80;99.90
18932;DHT22;9598;50.954;3.112;2022-11-25T05:46:29;9.80;99.90
18932;DHT22;9598;50.954;3.112;2022-11-25T05:51:31;9.80;99.90
18932;DHT22;9598;50.954;3.112;2022-11-25T05:56:36;9.90;99.90
18932;DHT22;9598;50.954;3.112;2022-11-25T06:02:00;9.80;99.90
18932;DHT22;9598;50.954;3.112;2022-11-25T06:07:03;9.70;99.90
18932;DHT22;9598;50.954;3.112;2022-11-25T06:12:06;9.80;99.90
18932;DHT22;9598;50.954;3.112;2022-11-25T06:17:15;9.80;99.90
18932;DHT22;9598;50.954;3.112;2022-11-25T06:22:35;9.80;99.90
18932;DHT22;9598;50.954;3.112;2022-11-25T06:27:37;9.80;99.90
18932;DHT22;9598;50.954;3.112;2022-11-25T06:32:41;9.70;99.90
18932;DHT22;9598;50.954;3.112;2022-11-25T06:37:57;9.70;99.90
18932;DHT22;9598;50.954;3.112;2022-11-25T06:42:59;9.70;99.90
18932;DHT22;9598;50.954;3.112;2022-11-25T06:48:03;9.70;99.90
18932;DHT22;9598;50.954;3.112;2022-11-25T06:53:05;9.70;99.90
18932;DHT22;9598;50.954;3.112;2022-11-25T06:58:07;9.70;99.90
18932;DHT22;9598;50.954;3.112;2022-11-25T07:03:11;9.70;99.90
18932;DHT22;9598;50.954;3.112;2022-11-25T07:08:13;9.70;99.90
18932;DHT22;9598;50.954;3.112;2022-11-25T07:13:15;9.70;99.90
18932;DHT22;9598;50.954;3.112;2022-11-25T07:18:18;9.70;99.90
18932;DHT22;9598;50.954;3.112;2022-11-25T07:23:20;9.70;99.90
18932;DHT22;9598;50.954;3.112;2022-11-25T07:28:23;9.80;99.90
18932;DHT22;9598;50.954;3.112;2022-11-25T07:33:26;9.80;99.90
18932;DHT22;9598;50.954;3.112;2022-11-25T07:38:28;9.70;99.90
18932;DHT22;9598;50.954;3.112;2022-11-25T07:43:30;9.70;99.90
18932;DHT22;9598;50.954;3.112;2022-11-25T07:48:37;9.60;99.90
18932;DHT22;9598;50.954;3.112;2022-11-25T07:53:39;9.60;99.90
18932;DHT22;9598;50.954;3.112;2022-11-25T07:58:41;9.60;99.90
18932;DHT22;9598;50.954;3.112;2022-11-25T08:03:46;9.60;99.90
18932;DHT22;9598;50.954;3.112;2022-11-25T08:08:49;9.70;99.90
18932;DHT22;9598;50.954;3.112;2022-11-25T08:13:55;9.70;99.90
18932;DHT22;9598;50.954;3.112;2022-11-25T08:18:59;9.70;99.90
18932;DHT22;9598;50.954;3.112;2022-11-25T08:24:02;9.70;99.90
18932;DHT22;9598;50.954;3.112;2022-11-25T08:29:06;9.70;99.90
18932;DHT22;9598;50.954;3.112;2022-11-25T08:34:16;9.70;99.90
18932;DHT22;9598;50.954;3.112;2022-11-25T08:39:20;9.70;99.90
18932;DHT22;9598;50.954;3.112;2022-11-25T08:44:22;9.70;99.90
18932;DHT22;9598;50.954;3.112;2022-11-25T08:49:31;9.70;99.90
18932;DHT22;9598;50.954;3.112;2022-11-25T08:54:33;9.70;99.90
18932;DHT22;9598;50.954;3.112;2022-11-25T08:59:35;9.70;99.90
18932;DHT22;9598;50.954;3.112;2022-11-25T09:04:39;9.90;99.90
18932;DHT22;9598;50.954;3.112;2022-11-25T09:09:41;9.90;99.90
18932;DHT22;9598;50.954;3.112;2022-11-25T09:14:43;10.00;99.90
18932;DHT22;9598;50.954;3.112;2022-11-25T09:19:46;10.00;99.90
18932;DHT22;9598;50.954;3.112;2022-11-25T09:24:48;10.00;99.90
18932;DHT22;9598;50.954;3.112;2022-11-25T09:29:51;10.10;99.90
18932;DHT22;9598;50.954;3.112;2022-11-25T09:34:54;10.10;99.90
18932;DHT22;9598;50.954;3.112;2022-11-25T09:39:56;10.10;99.90
18932;DHT22;9598;50.954;3.112;2022-11-25T09:45:06;10.20;99.90
18932;DHT22;9598;50.954;3.112;2022-11-25T09:50:43;10.20;99.90
18932;DHT22;9598;50.954;3.112;2022-11-25T09:55:50;10.40;99.90
18932;DHT22;9598;50.954;3.112;2022-11-25T10:00:56;10.40;99.90
18932;DHT22;9598;50.954;3.112;2022-11-25T10:06:03;10.50;99.90
18932;DHT22;9598;50.954;3.112;2022-11-25T10:11:16;10.50;99.90
18932;DHT22;9598;50.954;3.112;2022-11-25T10:16:29;10.60;99.90
18932;DHT22;9598;50.954;3.112;2022-11-25T10:21:34;10.70;99.90
18932;DHT22;9598;50.954;3.112;2022-11-25T10:26:40;10.70;99.90
18932;DHT22;9598;50.954;3.112;2022-11-25T10:31:43;10.70;99.90
18932;DHT22;9598;50.954;3.112;2022-11-25T10:36:50;10.80;99.90
18932;DHT22;9598;50.954;3.112;2022-11-25T10:41:56;10.90;99.90
18932;DHT22;9598;50.954;3.112;2022-11-25T10:52:28;11.00;99.90
18932;DHT22;9598;50.954;3.112;2022-11-25T10:57:30;11.10;99.90
18932;DHT22;9598;50.954;3.112;2022-11-25T11:02:37;11.20;99.90
18932;DHT22;9598;50.954;3.112;2022-11-25T11:07:43;11.30;99.90
18932;DHT22;9598;50.954;3.112;2022-11-25T11:12:57;11.30;99.90
18932;DHT22;9598;50.954;3.112;2022-11-25T11:18:14;11.40;99.90
18932;DHT22;9598;50.954;3.112;2022-11-25T11:23:24;11.50;99.90
18932;DHT22;9598;50.954;3.112;2022-11-25T11:28:30;11.60;99.90
18932;DHT22;9598;50.954;3.112;2022-11-25T11:33:48;11.60;99.90
18932;DHT22;9598;50.954;3.112;2022-11-25T11:39:09;11.70;99.90
18932;DHT22;9598;50.954;3.112;2022-11-25T11:44:27;11.80;99.90
18932;DHT22;9598;50.954;3.112;2022-11-25T11:55:24;12.00;99.90
18932;DHT22;9598;50.954;3.112;2022-11-25T12:00:28;12.10;99.90
18932;DHT22;9598;50.954;3.112;2022-11-25T12:05:34;12.10;99.90
18932;DHT22;9598;50.954;3.112;2022-11-25T12:10:40;12.20;99.90
18932;DHT22;9598;50.954;3.112;2022-11-25T12:15:47;12.30;99.90
18932;DHT22;9598;50.954;3.112;2022-11-25T12:20:56;12.30;99.90
18932;DHT22;9598;50.954;3.112;2022-11-25T12:26:07;12.40;99.90
18932;DHT22;9598;50.954;3.112;2022-11-25T12:31:15;12.40;99.90
18932;DHT22;9598;50.954;3.112;2022-11-25T12:36:26;12.50;99.90
18932;DHT22;9598;50.954;3.112;2022-11-25T12:41:39;12.50;99.90
18932;DHT22;9598;50.954;3.112;2022-11-25T12:46:45;12.60;99.90
18932;DHT22;9598;50.954;3.112;2022-11-25T12:52:07;12.60;99.90
18932;DHT22;9598;50.954;3.112;2022-11-25T12:57:36;12.70;99.90
18932;DHT22;9598;50.954;3.112;2022-11-25T13:03:14;12.70;99.90
18932;DHT22;9598;50.954;3.112;2022-11-25T13:08:35;12.90;99.90
18932;DHT22;9598;50.954;3.112;2022-11-25T13:13:53;12.90;99.90
18932;DHT22;9598;50.954;3.112;2022-11-25T13:18:58;12.90;99.90
18932;DHT22;9598;50.954;3.112;2022-11-25T13:24:00;13.00;99.90
18932;DHT22;9598;50.954;3.112;2022-11-25T13:35:35;13.10;99.90
18932;DHT22;9598;50.954;3.112;2022-11-25T13:40:38;13.20;99.90
18932;DHT22;9598;50.954;3.112;2022-11-25T13:45:42;13.20;99.90
18932;DHT22;9598;50.954;3.112;2022-11-25T13:50:45;13.10;99.90
18932;DHT22;9598;50.954;3.112;2022-11-25T13:55:49;13.10;99.90
18932;DHT22;9598;50.954;3.112;2022-11-25T14:01:23;13.10;99.90
18932;DHT22;9598;50.954;3.112;2022-11-25T14:06:37;13.10;99.90
18932;DHT22;9598;50.954;3.112;2022-11-25T14:11:58;13.00;99.90
18932;DHT22;9598;50.954;3.112;2022-11-25T14:17:17;13.10;99.90
18932;DHT22;9598;50.954;3.112;2022-11-25T14:22:39;13.10;99.90
18932;DHT22;9598;50.954;3.112;2022-11-25T14:27:45;13.10;99.90
18932;DHT22;9598;50.954;3.112;2022-11-25T14:32:53;13.10;99.90
18932;DHT22;9598;50.954;3.112;2022-11-25T14:37:59;13.10;99.90
18932;DHT22;9598;50.954;3.112;2022-11-25T14:43:06;13.00;99.90
18932;DHT22;9598;50.954;3.112;2022-11-25T14:48:15;13.00;99.90
18932;DHT22;9598;50.954;3.112;2022-11-25T14:53:17;12.90;99.90
18932;DHT22;9598;50.954;3.112;2022-11-25T14:58:20;12.90;99.90
18932;DHT22;9598;50.954;3.112;2022-11-25T15:03:23;12.90;99.90
18932;DHT22;9598;50.954;3.112;2022-11-25T15:08:25;12.80;99.90
18932;DHT22;9598;50.954;3.112;2022-11-25T15:13:31;12.80;99.90
18932;DHT22;9598;50.954;3.112;2022-11-25T15:18:36;12.70;99.90
18932;DHT22;9598;50.954;3.112;2022-11-25T15:23:39;12.70;99.90
18932;DHT22;9598;50.954;3.112;2022-11-25T15:28:41;12.60;99.90
18932;DHT22;9598;50.954;3.112;2022-11-25T15:33:46;12.50;99.90
18932;DHT22;9598;50.954;3.112;2022-11-25T15:38:51;12.50;99.90
18932;DHT22;9598;50.954;3.112;2022-11-25T15:43:55;12.40;99.90
18932;DHT22;9598;50.954;3.112;2022-11-25T15:49:01;12.40;99.90
18932;DHT22;9598;50.954;3.112;2022-11-25T15:54:06;12.30;99.90
18932;DHT22;9598;50.954;3.112;2022-11-25T15:59:37;12.20;99.90
18932;DHT22;9598;50.954;3.112;2022-11-25T16:04:41;12.20;99.90
18932;DHT22;9598;50.954;3.112;2022-11-25T16:09:49;12.10;99.90
18932;DHT22;9598;50.954;3.112;2022-11-25T16:14:51;12.00;99.90
18932;DHT22;9598;50.954;3.112;2022-11-25T16:19:54;12.00;99.90
18932;DHT22;9598;50.954;3.112;2022-11-25T16:24:56;11.90;99.90
18932;DHT22;9598;50.954;3.112;2022-11-25T16:30:10;11.80;99.90
18932;DHT22;9598;50.954;3.112;2022-11-25T16:35:19;11.70;99.90
18932;DHT22;9598;50.954;3.112;2022-11-25T16:40:21;11.60;99.90
18932;DHT22;9598;50.954;3.112;2022-11-25T16:45:27;11.60;99.90
18932;DHT22;9598;50.954;3.112;2022-11-25T16:50:30;11.50;99.90
18932;DHT22;9598;50.954;3.112;2022-11-25T16:55:32;11.40;99.90
18932;DHT22;9598;50.954;3.112;2022-11-25T17:00:34;11.40;99.90
18932;DHT22;9598;50.954;3.112;2022-11-25T17:05:38;11.40;99.90
18932;DHT22;9598;50.954;3.112;2022-11-25T17:10:41;11.30;99.90
18932;DHT22;9598;50.954;3.112;2022-11-25T17:15:44;11.30;99.90
18932;DHT22;9598;50.954;3.112;2022-11-25T17:20:48;11.30;99.90
18932;DHT22;9598;50.954;3.112;2022-11-25T17:25:50;11.20;99.90
18932;DHT22;9598;50.954;3.112;2022-11-25T17:30:52;11.20;99.90
18932;DHT22;9598;50.954;3.112;2022-11-25T17:35:56;11.10;99.90
18932;DHT22;9598;50.954;3.112;2022-11-25T17:40:58;11.10;99.90
18932;DHT22;9598;50.954;3.112;2022-11-25T17:46:00;11.00;99.90
18932;DHT22;9598;50.954;3.112;2022-11-25T17:51:03;10.90;99.90
18932;DHT22;9598;50.954;3.112;2022-11-25T17:56:16;10.80;99.90
18932;DHT22;9598;50.954;3.112;2022-11-25T18:01:19;10.80;99.90
18932;DHT22;9598;50.954;3.112;2022-11-25T18:06:22;10.70;99.90
18932;DHT22;9598;50.954;3.112;2022-11-25T18:11:24;10.60;99.90
18932;DHT22;9598;50.954;3.112;2022-11-25T18:16:27;10.50;99.90
18932;DHT22;9598;50.954;3.112;2022-11-25T18:21:32;10.40;99.90
18932;DHT22;9598;50.954;3.112;2022-11-25T18:26:40;10.40;99.90
18932;DHT22;9598;50.954;3.112;2022-11-25T18:31:43;10.30;99.90
18932;DHT22;9598;50.954;3.112;2022-11-25T18:36:49;10.30;99.90
18932;DHT22;9598;50.954;3.112;2022-11-25T18:41:52;10.20;99.90
18932;DHT22;9598;50.954;3.112;2022-11-25T18:46:57;10.20;99.90
18932;DHT22;9598;50.954;3.112;2022-11-25T18:52:01;10.10;99.90
18932;DHT22;9598;50.954;3.112;2022-11-25T18:57:03;10.00;99.90
18932;DHT22;9598;50.954;3.112;2022-11-25T19:02:10;10.00;99.90
18932;DHT22;9598;50.954;3.112;2022-11-25T19:07:16;9.90;99.90
18932;DHT22;9598;50.954;3.112;2022-11-25T19:12:19;9.90;99.90
18932;DHT22;9598;50.954;3.112;2022-11-25T19:17:22;9.80;99.90
18932;DHT22;9598;50.954;3.112;2022-11-25T19:22:27;9.60;99.90
18932;DHT22;9598;50.954;3.112;2022-11-25T19:27:31;9.50;99.90
18932;DHT22;9598;50.954;3.112;2022-11-25T19:32:36;9.50;99.90
18932;DHT22;9598;50.954;3.112;2022-11-25T19:37:39;9.40;99.90
18932;DHT22;9598;50.954;3.112;2022-11-25T19:42:42;9.30;99.90
18932;DHT22;9598;50.954;3.112;2022-11-25T19:47:47;9.30;99.90
18932;DHT22;9598;50.954;3.112;2022-11-25T19:52:52;9.30;99.90
18932;DHT22;9598;50.954;3.112;2022-11-25T19:57:54;9.30;99.90
18932;DHT22;9598;50.954;3.112;2022-11-25T20:02:57;9.20;99.90
18932;DHT22;9598;50.954;3.112;2022-11-25T20:08:01;9.20;99.90
18932;DHT22;9598;50.954;3.112;2022-11-25T20:13:05;9.10;99.90
18932;DHT22;9598;50.954;3.112;2022-11-25T20:18:12;9.10;99.90
18932;DHT22;9598;50.954;3.112;2022-11-25T20:23:21;9.10;99.90
18932;DHT22;9598;50.954;3.112;2022-11-25T20:28:26;9.10;99.90
18932;DHT22;9598;50.954;3.112;2022-11-25T20:33:29;9.10;99.90
18932;DHT22;9598;50.954;3.112;2022-11-25T20:38:34;9.10;99.90
18932;DHT22;9598;50.954;3.112;2022-11-25T20:43:38;9.10;99.90
18932;DHT22;9598;50.954;3.112;2022-11-25T20:48:41;9.10;99.90
18932;DHT22;9598;50.954;3.112;2022-11-25T20:53:47;9.10;99.90
18932;DHT22;9598;50.954;3.112;2022-11-25T20:58:50;9.10;99.90
18932;DHT22;9598;50.954;3.112;2022-11-25T21:03:52;9.00;99.90
18932;DHT22;9598;50.954;3.112;2022-11-25T21:08:58;9.00;99.90
18932;DHT22;9598;50.954;3.112;2022-11-25T21:14:02;8.90;99.90
18932;DHT22;9598;50.954;3.112;2022-11-25T21:19:04;8.90;99.90
18932;DHT22;9598;50.954;3.112;2022-11-25T21:24:16;8.90;99.90
18932;DHT22;9598;50.954;3.112;2022-11-25T21:29:20;8.80;99.90
18932;DHT22;9598;50.954;3.112;2022-11-25T21:34:22;8.80;99.90
18932;DHT22;9598;50.954;3.112;2022-11-25T21:39:29;8.70;99.90
18932;DHT22;9598;50.954;3.112;2022-11-25T21:44:35;8.70;99.90
18932;DHT22;9598;50.954;3.112;2022-11-25T21:49:37;8.60;99.90
18932;DHT22;9598;50.954;3.112;2022-11-25T21:54:41;8.60;99.90
18932;DHT22;9598;50.954;3.112;2022-11-25T21:59:44;8.60;99.90
18932;DHT22;9598;50.954;3.112;2022-11-25T22:04:47;8.50;99.90
18932;DHT22;9598;50.954;3.112;2022-11-25T22:09:50;8.50;99.90
18932;DHT22;9598;50.954;3.112;2022-11-25T22:14:52;8.50;99.90
18932;DHT22;9598;50.954;3.112;2022-11-25T22:19:55;8.40;99.90
18932;DHT22;9598;50.954;3.112;2022-11-25T22:24:59;8.40;99.90
18932;DHT22;9598;50.954;3.112;2022-11-25T22:30:01;8.40;99.90
18932;DHT22;9598;50.954;3.112;2022-11-25T22:35:08;8.30;99.90
18932;DHT22;9598;50.954;3.112;2022-11-25T22:40:15;8.20;99.90
18932;DHT22;9598;50.954;3.112;2022-11-25T22:45:22;8.20;99.90
18932;DHT22;9598;50.954;3.112;2022-11-25T22:50:28;8.20;99.90
18932;DHT22;9598;50.954;3.112;2022-11-25T22:55:32;8.20;99.90
18932;DHT22;9598;50.954;3.112;2022-11-25T23:00:35;8.30;99.90
18932;DHT22;9598;50.954;3.112;2022-11-25T23:05:38;8.20;99.90
18932;DHT22;9598;50.954;3.112;2022-11-25T23:10:43;8.10;99.90
18932;DHT22;9598;50.954;3.112;2022-11-25T23:15:47;8.10;99.90
18932;DHT22;9598;50.954;3.112;2022-11-25T23:20:50;8.10;99.90
18932;DHT22;9598;50.954;3.112;2022-11-25T23:25:54;8.00;99.90
18932;DHT22;9598;50.954;3.112;2022-11-25T23:30:57;8.10;99.90
18932;DHT22;9598;50.954;3.112;2022-11-25T23:36:01;8.00;99.90
18932;DHT22;9598;50.954;3.112;2022-11-25T23:41:05;8.00;99.90
18932;DHT22;9598;50.954;3.112;2022-11-25T23:46:08;8.00;99.90
18932;DHT22;9598;50.954;3.112;2022-11-25T23:51:13;7.90;99.90
18932;DHT22;9598;50.954;3.112;2022-11-25T23:56:17;7.90;99.90
